Marlton, New Jersey
Current Conditions -  °F | °C
As of 6:54 PM on Saturday 25 Oct 2014 (Local Time) from KVAY Reporting Station
Clear Clear  
Wind Chill: 60°   Ceiling: Unl
Heat Index: 60°   Visibility: 10mi
Dew Point: 46°   Wind: 3mph
Humidity: 60%   Direction: 200°SSW
Pressure: 29.68"   Gusts: NA
Location:  39.89°N, 74.92°W
Report Text: KVAY 252254Z AUTO 20003KT 10SM CLR 16/08 A2968 RMK AO2 SLP050 T01560078
Loading
Personal Weather Stations






























Interactive Weather Map New forecast layout! Learn more

10-Day Weather Forecast

Advertisements
Track Severe Weather on mobile